Advance, Missouri
Current Conditions -  °F | °C
As of 10:05 AM on Sunday 25 Jan 2015 (Local Time) from KCGI Reporting Station
Light Rain Light Rain  
Wind Chill: 36°   Ceiling: 4700
Heat Index: 40°   Visibility: 6mi
Dew Point: 39°   Wind: 6mph
Humidity: 97%   Direction: 200°SSW
Pressure: 29.64"   Gusts: NA
Location:  37.1°N, 89.91°W
Report Text: KCGI 251605Z 20005KT 6SM -RA BR SCT009 BKN047 OVC060 04/04 A2964 RMK AO2 P0001 T00440039
Loading
Personal Weather Stations






























Interactive Weather Map New forecast layout! Learn more

10-Day Weather Forecast

Advertisements
Track Severe Weather on mobile